CST,Max TemperatureF,Mean TemperatureF,Min TemperatureF,Max Dew PointF,MeanDew PointF,Min DewpointF,Max Humidity, Mean Humidity, Min Humidity, Max Sea Level PressureIn, Mean Sea Level PressureIn, Min Sea Level PressureIn, Max VisibilityMiles, Mean VisibilityMiles, Min VisibilityMiles, Max Wind SpeedMPH, Mean Wind SpeedMPH, Max Gust SpeedMPH,PrecipitationIn, CloudCover, Events, WindDirDegrees
2012-12-1,75,60,46,48,37,31,86,51,20,29.96,29.87,29.80,10,10,9,22,15,29,0.00,0,,199
2012-12-2,70,53,36,53,40,31,89,60,25,30.04,29.95,29.84,10,10,8,21,9,,0.00,0,,206
2012-12-3,78,66,52,56,43,25,94,57,15,30.06,29.85,29.76,10,8,2,25,19,33,0.00,1,,231
2012-12-4,63,52,39,37,24,13,62,40,14,30.34,30.27,30.08,10,10,10,18,12,16,0.00,0,,17
2012-12-5,61,49,37,34,24,19,61,38,23,30.33,30.17,29.95,10,10,10,17,9,18,0.00,0,,156
2012-12-6,62,52,43,40,36,29,86,62,29,29.91,29.84,29.77,10,10,9,22,16,30,0.00,0,,235
2012-12-7,55,45,35,40,35,30,100,73,55,29.95,29.89,29.82,10,9,0,15,10,,0.00,0,Fog,2
2012-12-8,46,38,30,43,36,28,100,94,76,29.97,29.90,29.77,7,3,0,17,8,,0.00,5,Fog,42
2012-12-9,44,40,37,43,42,37,100,96,93,30.17,29.97,29.76,2,1,0,15,6,,0.00,,Fog,344
2012-12-10,37,31,24,8,6,2,51,36,25,30.19,30.12,30.03,10,10,10,17,11,,0.00,0,,220
2012-12-11,46,32,17,14,11,8,68,44,24,30.20,30.15,30.09,10,10,10,13,9,,0.00,0,,197
2012-12-12,54,40,26,18,14,11,53,38,22,30.20,30.13,30.06,10,10,10,28,17,36,0.00,0,,173
2012-12-13,61,46,32,34,23,19,61,45,25,30.15,30.10,30.04,10,10,10,24,16,29,0.00,0,,180
2012-12-14,55,50,45,54,44,35,100,80,57,30.06,29.82,29.64,10,7,1,38,20,45,0.14,7,Rain-Thunderstorm,178
2012-12-15,57,48,39,38,35,31,73,59,44,29.81,29.73,29.65,10,10,10,18,14,30,0.00,0,,220
2012-12-16,61,49,34,36,32,27,96,65,27,29.82,29.75,29.66,10,10,5,18,13,26,0.00,1,,273
2012-12-17,54,42,30,38,32,28,100,79,47,29.91,29.85,29.75,10,7,0,17,10,,0.00,0,Fog,245
2012-12-18,62,50,37,28,24,16,65,43,17,29.82,29.77,29.72,10,10,10,20,13,25,0.00,0,,50
2012-12-19,57,45,33,40,29,21,67,55,31,29.95,29.65,29.45,10,10,9,43,13,58,0.00,3,,225
2012-12-20,46,36,27,22,10,1,64,40,16,30.41,30.30,30.00,10,10,10,34,24,54,0.00,1,,297
2012-12-21,61,44,28,12,8,6,45,27,11,30.38,30.29,30.21,10,10,10,18,12,22,0.00,0,,213
2012-12-22,57,44,30,18,11,5,44,29,16,30.20,30.06,29.92,10,10,10,23,14,28,0.00,0,,192
2012-12-23,52,40,27,24,21,14,75,54,31,30.02,29.95,29.88,10,10,10,16,10,,0.00,0,,349
2012-12-24,39,31,23,21,19,18,81,63,41,30.08,29.99,29.89,10,10,9,16,10,,0.00,0,,29
2012-12-25,28,20,12,18,15,6,93,82,64,30.34,30.05,29.87,10,3,0,34,26,44,0.00,6,Fog-Snow,1
2012-12-26,21,16,10,13,8,3,77,71,60,30.34,30.24,30.08,10,10,10,21,13,26,0.00,0,,357
2012-12-27,28,22,15,23,18,12,92,84,74,30.06,29.95,29.86,10,9,7,26,13,32,0.00,0,,193
2012-12-28,30,24,18,20,16,12,88,76,50,30.27,30.08,29.96,10,8,1,21,13,26,0.00,4,Snow,337
2012-12-29,44,31,18,24,19,12,78,66,40,30.45,30.37,30.27,10,10,10,16,10,,0.00,0,,298
2012-12-30,39,32,25,27,23,19,78,68,55,30.36,30.25,30.11,10,10,10,23,15,29,0.00,0,,173
2012-12-31,37,32,28,37,32,25,100,92,70,30.15,30.03,29.95,10,5,0,21,13,28,0.19,7,Fog-Rain,217